Pagrindinis puslapis
METAR-TAF:

METAR-TAF

Oro uostai :

Fudžou, Kinija

platuma: 26-05N, ilguma: 119-17E, Aukštis: 85 m

Dabartinis oras

Ataskaita buvo paskelbta 13 minutes, ne 21:00 UTC
Vėjas 14 kt iš Šiaurės/Šiaurės Rytų
Temperatūra 12°C
Drėgmė 76%
Slėgis 1022 hPa
Matomumas 10 km arba daugiau
Apsiniaukę ne aukštis 2700 ft

METAR: ZSFZ 262100Z 03007MPS 9999 OVC027 12/08 Q1022 NOSIG

Laikas: 05:13 (21:13 UTC)

Prognozė

Ataskaita buvo paskelbta 6 valandos ir 2 minutes, ne 15:11 UTC
Prognozė galioja nuo 26 metu 18 UTC su 27 metu 18 UTC
Vėjas 8 kt iš Šiaurės Rytų
Matomumas: 4000 m
Su prošvaistėmis ne aukštis 1500 ft
rūkana

TAF: ZSFZ 261511Z 2618/2718 04004MPS 4000 BR BKN015 TX16/2706Z TN10/2622Z

Orai ataskaitas ir orų prognozės (METAR, TAF).

turimą stotys yra geltonos ir raudonos taškus žemėlapyje.

Perkelti pele per norėdami pamatyti stoties vardą.

Tada spustelėkite, norėdami matyti oro stebėjimo ir prognozės.

Norėdami pakeisti žemėlapį: spustelėkite ant žalios mygtukų su juodo kryžiaus žemyn,; žalią mygtuką su brūkšneliu, jei norite nutolinti; arba žalių rodyklių gretimoms žemėlapius.


METAR-TAF: